Lakeview, Texas
Current Conditions -  °F | °C
As of 7:53 AM on Friday 24 Oct 2014 (Local Time) from KCDS Reporting Station
Haze Haze  
Wind Chill: 59°   Ceiling: Unl
Heat Index: 59°   Visibility: 5mi
Dew Point: 58°   Wind: 5mph
Humidity: 96%   Direction: 200°SSW
Pressure: 30.1"   Gusts: NA
Location:  34.67°N, 100.7°W
Report Text: KCDS 241253Z AUTO 20004KT 5SM BR CLR 15/14 A3010 RMK AO2 SLP177 T01500144
Loading
Personal Weather Stations






























Interactive Weather Map
Tropical Storm Tracking
New forecast layout! Learn more

10-Day Weather Forecast

Advertisements
Track Severe Weather on mobile